sensor_id;sensor_type;location;lat;lon;timestamp;P1;durP1;ratioP1;P2;durP2;ratioP2
65799;SDS011;52544;48.116;11.660;2023-01-08T00:01:16;5.80;;;3.22;;
65799;SDS011;52544;48.116;11.660;2023-01-08T00:03:42;7.10;;;3.15;;
65799;SDS011;52544;48.116;11.660;2023-01-08T00:06:10;7.88;;;3.78;;
65799;SDS011;52544;48.116;11.660;2023-01-08T00:08:37;7.82;;;3.47;;
65799;SDS011;52544;48.116;11.660;2023-01-08T00:11:03;9.18;;;3.90;;
65799;SDS011;52544;48.116;11.660;2023-01-08T00:13:29;9.93;;;4.78;;
65799;SDS011;52544;48.116;11.660;2023-01-08T00:15:54;9.63;;;4.95;;
65799;SDS011;52544;48.116;11.660;2023-01-08T00:18:19;10.88;;;4.63;;
65799;SDS011;52544;48.116;11.660;2023-01-08T00:20:45;8.90;;;4.00;;
65799;SDS011;52544;48.116;11.660;2023-01-08T00:23:11;11.95;;;5.00;;
65799;SDS011;52544;48.116;11.660;2023-01-08T00:25:37;12.90;;;4.97;;
65799;SDS011;52544;48.116;11.660;2023-01-08T00:28:03;9.48;;;4.53;;
65799;SDS011;52544;48.116;11.660;2023-01-08T00:30:28;12.02;;;3.88;;
65799;SDS011;52544;48.116;11.660;2023-01-08T00:32:54;6.80;;;3.47;;
65799;SDS011;52544;48.116;11.660;2023-01-08T00:35:19;7.00;;;3.38;;
65799;SDS011;52544;48.116;11.660;2023-01-08T00:37:47;7.10;;;3.45;;
65799;SDS011;52544;48.116;11.660;2023-01-08T00:40:13;6.05;;;3.25;;
65799;SDS011;52544;48.116;11.660;2023-01-08T00:42:38;5.63;;;3.67;;
65799;SDS011;52544;48.116;11.660;2023-01-08T00:45:04;6.85;;;3.72;;
65799;SDS011;52544;48.116;11.660;2023-01-08T00:47:30;16.00;;;6.25;;
65799;SDS011;52544;48.116;11.660;2023-01-08T00:49:55;6.47;;;3.55;;
65799;SDS011;52544;48.116;11.660;2023-01-08T00:52:20;11.23;;;4.57;;
65799;SDS011;52544;48.116;11.660;2023-01-08T00:54:46;8.65;;;4.40;;
65799;SDS011;52544;48.116;11.660;2023-01-08T00:57:11;8.88;;;4.72;;
65799;SDS011;52544;48.116;11.660;2023-01-08T00:59:37;8.15;;;4.18;;
65799;SDS011;52544;48.116;11.660;2023-01-08T01:02:02;12.43;;;4.20;;
65799;SDS011;52544;48.116;11.660;2023-01-08T01:04:27;6.85;;;4.03;;
65799;SDS011;52544;48.116;11.660;2023-01-08T01:06:53;7.53;;;3.38;;
65799;SDS011;52544;48.116;11.660;2023-01-08T01:09:18;5.90;;;3.30;;
65799;SDS011;52544;48.116;11.660;2023-01-08T01:11:44;7.07;;;3.45;;
65799;SDS011;52544;48.116;11.660;2023-01-08T01:14:09;5.20;;;3.47;;
65799;SDS011;52544;48.116;11.660;2023-01-08T01:16:34;7.25;;;3.60;;
65799;SDS011;52544;48.116;11.660;2023-01-08T01:19:00;10.93;;;4.57;;
65799;SDS011;52544;48.116;11.660;2023-01-08T01:21:27;8.50;;;3.80;;
65799;SDS011;52544;48.116;11.660;2023-01-08T01:23:58;5.03;;;3.20;;
65799;SDS011;52544;48.116;11.660;2023-01-08T01:26:26;5.45;;;3.45;;
65799;SDS011;52544;48.116;11.660;2023-01-08T01:28:52;6.43;;;3.20;;
65799;SDS011;52544;48.116;11.660;2023-01-08T01:31:19;11.50;;;5.47;;
65799;SDS011;52544;48.116;11.660;2023-01-08T01:33:45;12.23;;;5.35;;
65799;SDS011;52544;48.116;11.660;2023-01-08T01:36:12;10.77;;;4.45;;
65799;SDS011;52544;48.116;11.660;2023-01-08T01:38:45;10.98;;;5.15;;
65799;SDS011;52544;48.116;11.660;2023-01-08T01:41:23;8.82;;;4.80;;
65799;SDS011;52544;48.116;11.660;2023-01-08T01:43:49;8.85;;;4.57;;
65799;SDS011;52544;48.116;11.660;2023-01-08T01:46:37;11.32;;;4.28;;
65799;SDS011;52544;48.116;11.660;2023-01-08T01:49:08;10.05;;;4.30;;
65799;SDS011;52544;48.116;11.660;2023-01-08T01:51:35;8.95;;;4.07;;
65799;SDS011;52544;48.116;11.660;2023-01-08T01:54:03;8.90;;;4.15;;
65799;SDS011;52544;48.116;11.660;2023-01-08T01:56:31;8.55;;;3.80;;
65799;SDS011;52544;48.116;11.660;2023-01-08T01:58:57;9.60;;;4.03;;
65799;SDS011;52544;48.116;11.660;2023-01-08T02:01:22;6.72;;;3.70;;
65799;SDS011;52544;48.116;11.660;2023-01-08T02:03:48;8.93;;;4.28;;
65799;SDS011;52544;48.116;11.660;2023-01-08T02:06:15;10.95;;;4.35;;
65799;SDS011;52544;48.116;11.660;2023-01-08T02:11:22;6.63;;;3.28;;
65799;SDS011;52544;48.116;11.660;2023-01-08T02:13:51;6.75;;;3.20;;
65799;SDS011;52544;48.116;11.660;2023-01-08T02:16:33;5.68;;;3.35;;
65799;SDS011;52544;48.116;11.660;2023-01-08T02:19:13;6.45;;;3.63;;
65799;SDS011;52544;48.116;11.660;2023-01-08T02:25:00;5.65;;;3.13;;
65799;SDS011;52544;48.116;11.660;2023-01-08T02:27:35;8.40;;;3.15;;
65799;SDS011;52544;48.116;11.660;2023-01-08T02:30:04;6.68;;;3.40;;
65799;SDS011;52544;48.116;11.660;2023-01-08T02:32:37;5.05;;;2.90;;
65799;SDS011;52544;48.116;11.660;2023-01-08T02:35:04;6.70;;;2.95;;
65799;SDS011;52544;48.116;11.660;2023-01-08T02:37:31;5.90;;;2.90;;
65799;SDS011;52544;48.116;11.660;2023-01-08T02:45:06;7.35;;;2.85;;
65799;SDS011;52544;48.116;11.660;2023-01-08T02:47:44;7.15;;;3.05;;
65799;SDS011;52544;48.116;11.660;2023-01-08T02:52:47;5.70;;;3.20;;
65799;SDS011;52544;48.116;11.660;2023-01-08T02:55:19;7.38;;;4.15;;
65799;SDS011;52544;48.116;11.660;2023-01-08T02:57:48;7.43;;;4.13;;
65799;SDS011;52544;48.116;11.660;2023-01-08T03:00:15;7.93;;;4.15;;
65799;SDS011;52544;48.116;11.660;2023-01-08T03:02:40;9.07;;;3.45;;
65799;SDS011;52544;48.116;11.660;2023-01-08T03:05:13;12.05;;;4.38;;
65799;SDS011;52544;48.116;11.660;2023-01-08T03:07:46;11.70;;;3.80;;
65799;SDS011;52544;48.116;11.660;2023-01-08T03:10:12;7.20;;;3.55;;
65799;SDS011;52544;48.116;11.660;2023-01-08T03:15:19;10.52;;;4.10;;
65799;SDS011;52544;48.116;11.660;2023-01-08T03:17:50;6.90;;;2.80;;
65799;SDS011;52544;48.116;11.660;2023-01-08T03:20:19;4.28;;;2.55;;
65799;SDS011;52544;48.116;11.660;2023-01-08T03:22:49;5.25;;;2.65;;
65799;SDS011;52544;48.116;11.660;2023-01-08T03:25:19;4.13;;;2.22;;
65799;SDS011;52544;48.116;11.660;2023-01-08T03:27:48;6.03;;;2.60;;
65799;SDS011;52544;48.116;11.660;2023-01-08T03:30:17;4.00;;;2.08;;
65799;SDS011;52544;48.116;11.660;2023-01-08T03:32:45;4.35;;;2.20;;
65799;SDS011;52544;48.116;11.660;2023-01-08T03:35:12;4.13;;;2.20;;
65799;SDS011;52544;48.116;11.660;2023-01-08T03:37:45;4.95;;;2.10;;
65799;SDS011;52544;48.116;11.660;2023-01-08T03:40:18;4.18;;;2.17;;
65799;SDS011;52544;48.116;11.660;2023-01-08T03:42:47;3.90;;;1.95;;
65799;SDS011;52544;48.116;11.660;2023-01-08T03:45:13;2.38;;;1.60;;
65799;SDS011;52544;48.116;11.660;2023-01-08T03:47:38;4.60;;;1.90;;
65799;SDS011;52544;48.116;11.660;2023-01-08T03:50:07;2.70;;;1.70;;
65799;SDS011;52544;48.116;11.660;2023-01-08T03:52:35;4.00;;;1.80;;
65799;SDS011;52544;48.116;11.660;2023-01-08T03:55:01;2.35;;;1.65;;
65799;SDS011;52544;48.116;11.660;2023-01-08T03:57:26;2.63;;;1.67;;
65799;SDS011;52544;48.116;11.660;2023-01-08T03:59:51;2.88;;;1.67;;
65799;SDS011;52544;48.116;11.660;2023-01-08T04:02:17;4.38;;;1.73;;
65799;SDS011;52544;48.116;11.660;2023-01-08T04:04:42;3.05;;;1.70;;
65799;SDS011;52544;48.116;11.660;2023-01-08T04:07:11;3.83;;;1.75;;
65799;SDS011;52544;48.116;11.660;2023-01-08T04:09:37;2.72;;;1.80;;
65799;SDS011;52544;48.116;11.660;2023-01-08T04:12:03;2.67;;;1.70;;
65799;SDS011;52544;48.116;11.660;2023-01-08T04:14:28;3.30;;;1.73;;
65799;SDS011;52544;48.116;11.660;2023-01-08T04:16:54;3.70;;;1.92;;
65799;SDS011;52544;48.116;11.660;2023-01-08T04:19:19;2.90;;;1.70;;
65799;SDS011;52544;48.116;11.660;2023-01-08T04:21:45;3.58;;;1.70;;
65799;SDS011;52544;48.116;11.660;2023-01-08T04:24:11;3.88;;;1.90;;
65799;SDS011;52544;48.116;11.660;2023-01-08T04:26:37;2.95;;;2.05;;
65799;SDS011;52544;48.116;11.660;2023-01-08T04:29:02;2.65;;;1.80;;
65799;SDS011;52544;48.116;11.660;2023-01-08T04:31:28;4.63;;;1.85;;
65799;SDS011;52544;48.116;11.660;2023-01-08T04:33:54;3.08;;;1.85;;
65799;SDS011;52544;48.116;11.660;2023-01-08T04:36:19;3.28;;;1.73;;
65799;SDS011;52544;48.116;11.660;2023-01-08T04:38:44;3.22;;;1.90;;
65799;SDS011;52544;48.116;11.660;2023-01-08T04:41:10;3.13;;;1.80;;
65799;SDS011;52544;48.116;11.660;2023-01-08T04:43:35;3.63;;;1.77;;
65799;SDS011;52544;48.116;11.660;2023-01-08T04:46:01;2.60;;;1.63;;
65799;SDS011;52544;48.116;11.660;2023-01-08T04:48:29;3.10;;;1.80;;
65799;SDS011;52544;48.116;11.660;2023-01-08T04:50:57;3.47;;;1.80;;
65799;SDS011;52544;48.116;11.660;2023-01-08T04:53:24;5.20;;;2.00;;
65799;SDS011;52544;48.116;11.660;2023-01-08T04:55:49;3.38;;;1.90;;
65799;SDS011;52544;48.116;11.660;2023-01-08T04:58:15;3.15;;;1.70;;
65799;SDS011;52544;48.116;11.660;2023-01-08T05:00:40;2.78;;;1.58;;
65799;SDS011;52544;48.116;11.660;2023-01-08T05:03:05;3.28;;;1.95;;
65799;SDS011;52544;48.116;11.660;2023-01-08T05:05:32;2.30;;;1.58;;
65799;SDS011;52544;48.116;11.660;2023-01-08T05:07:58;3.53;;;1.67;;
65799;SDS011;52544;48.116;11.660;2023-01-08T05:10:23;3.38;;;1.75;;
65799;SDS011;52544;48.116;11.660;2023-01-08T05:12:49;2.40;;;1.40;;
65799;SDS011;52544;48.116;11.660;2023-01-08T05:15:14;3.67;;;1.90;;
65799;SDS011;52544;48.116;11.660;2023-01-08T05:17:40;2.55;;;1.73;;
65799;SDS011;52544;48.116;11.660;2023-01-08T05:20:05;3.97;;;1.80;;
65799;SDS011;52544;48.116;11.660;2023-01-08T05:22:32;2.90;;;1.58;;
65799;SDS011;52544;48.116;11.660;2023-01-08T05:24:57;3.65;;;1.42;;
65799;SDS011;52544;48.116;11.660;2023-01-08T05:27:23;2.45;;;1.40;;
65799;SDS011;52544;48.116;11.660;2023-01-08T05:29:48;1.90;;;1.38;;
65799;SDS011;52544;48.116;11.660;2023-01-08T05:32:15;3.00;;;1.70;;
65799;SDS011;52544;48.116;11.660;2023-01-08T05:34:42;2.28;;;1.27;;
65799;SDS011;52544;48.116;11.660;2023-01-08T05:37:08;1.75;;;1.33;;
65799;SDS011;52544;48.116;11.660;2023-01-08T05:39:34;2.40;;;1.50;;
65799;SDS011;52544;48.116;11.660;2023-01-08T05:42:00;2.72;;;1.60;;
65799;SDS011;52544;48.116;11.660;2023-01-08T05:44:25;2.60;;;1.27;;
65799;SDS011;52544;48.116;11.660;2023-01-08T05:46:54;3.13;;;1.52;;
65799;SDS011;52544;48.116;11.660;2023-01-08T05:49:20;3.28;;;1.40;;
65799;SDS011;52544;48.116;11.660;2023-01-08T05:51:46;3.50;;;1.58;;
65799;SDS011;52544;48.116;11.660;2023-01-08T05:54:12;3.13;;;1.60;;
65799;SDS011;52544;48.116;11.660;2023-01-08T05:56:38;2.65;;;1.35;;
65799;SDS011;52544;48.116;11.660;2023-01-08T05:59:03;3.85;;;1.60;;
65799;SDS011;52544;48.116;11.660;2023-01-08T06:01:29;2.00;;;1.30;;
65799;SDS011;52544;48.116;11.660;2023-01-08T06:03:54;1.95;;;1.27;;
65799;SDS011;52544;48.116;11.660;2023-01-08T06:06:20;2.80;;;1.60;;
65799;SDS011;52544;48.116;11.660;2023-01-08T06:08:46;1.92;;;1.30;;
65799;SDS011;52544;48.116;11.660;2023-01-08T06:11:11;4.68;;;2.80;;
65799;SDS011;52544;48.116;11.660;2023-01-08T06:13:39;4.07;;;2.50;;
65799;SDS011;52544;48.116;11.660;2023-01-08T06:16:08;7.05;;;3.88;;
65799;SDS011;52544;48.116;11.660;2023-01-08T06:18:34;6.65;;;3.42;;
65799;SDS011;52544;48.116;11.660;2023-01-08T06:21:02;6.00;;;2.70;;
65799;SDS011;52544;48.116;11.660;2023-01-08T06:23:29;7.13;;;3.60;;
65799;SDS011;52544;48.116;11.660;2023-01-08T06:25:56;5.05;;;2.35;;
65799;SDS011;52544;48.116;11.660;2023-01-08T06:28:23;4.38;;;2.15;;
65799;SDS011;52544;48.116;11.660;2023-01-08T06:30:48;5.28;;;2.10;;
65799;SDS011;52544;48.116;11.660;2023-01-08T06:33:14;4.95;;;2.38;;
65799;SDS011;52544;48.116;11.660;2023-01-08T06:35:39;3.35;;;1.80;;
65799;SDS011;52544;48.116;11.660;2023-01-08T06:38:05;3.25;;;1.90;;
65799;SDS011;52544;48.116;11.660;2023-01-08T06:40:30;3.80;;;2.13;;
65799;SDS011;52544;48.116;11.660;2023-01-08T06:42:59;4.97;;;1.90;;
65799;SDS011;52544;48.116;11.660;2023-01-08T06:45:26;6.30;;;2.90;;
65799;SDS011;52544;48.116;11.660;2023-01-08T06:47:52;2.95;;;1.80;;
65799;SDS011;52544;48.116;11.660;2023-01-08T06:50:17;4.10;;;2.10;;
65799;SDS011;52544;48.116;11.660;2023-01-08T06:52:42;2.92;;;1.67;;
65799;SDS011;52544;48.116;11.660;2023-01-08T06:55:08;3.95;;;1.90;;
65799;SDS011;52544;48.116;11.660;2023-01-08T06:57:33;3.58;;;1.77;;
65799;SDS011;52544;48.116;11.660;2023-01-08T06:59:59;3.40;;;1.60;;
65799;SDS011;52544;48.116;11.660;2023-01-08T07:02:24;4.30;;;1.38;;
65799;SDS011;52544;48.116;11.660;2023-01-08T07:04:50;26.30;;;9.85;;
65799;SDS011;52544;48.116;11.660;2023-01-08T07:07:15;7.97;;;3.88;;
65799;SDS011;52544;48.116;11.660;2023-01-08T07:09:41;7.95;;;3.30;;
65799;SDS011;52544;48.116;11.660;2023-01-08T07:12:10;6.32;;;3.03;;
65799;SDS011;52544;48.116;11.660;2023-01-08T07:14:37;6.45;;;3.28;;
65799;SDS011;52544;48.116;11.660;2023-01-08T07:17:02;6.60;;;3.25;;
65799;SDS011;52544;48.116;11.660;2023-01-08T07:19:27;4.90;;;2.30;;
65799;SDS011;52544;48.116;11.660;2023-01-08T07:21:53;2.72;;;1.63;;
65799;SDS011;52544;48.116;11.660;2023-01-08T07:24:18;3.85;;;2.28;;
65799;SDS011;52544;48.116;11.660;2023-01-08T07:26:44;4.75;;;2.40;;
65799;SDS011;52544;48.116;11.660;2023-01-08T07:29:09;3.33;;;1.95;;
65799;SDS011;52544;48.116;11.660;2023-01-08T07:31:34;5.18;;;2.20;;
65799;SDS011;52544;48.116;11.660;2023-01-08T07:34:00;3.95;;;2.17;;
65799;SDS011;52544;48.116;11.660;2023-01-08T07:36:25;4.22;;;2.42;;
65799;SDS011;52544;48.116;11.660;2023-01-08T07:38:50;7.93;;;3.40;;
65799;SDS011;52544;48.116;11.660;2023-01-08T07:41:16;8.90;;;3.83;;
65799;SDS011;52544;48.116;11.660;2023-01-08T07:43:42;5.53;;;2.70;;
65799;SDS011;52544;48.116;11.660;2023-01-08T07:46:07;4.82;;;2.58;;
65799;SDS011;52544;48.116;11.660;2023-01-08T07:48:33;6.38;;;3.30;;
65799;SDS011;52544;48.116;11.660;2023-01-08T07:51:00;6.95;;;3.33;;
65799;SDS011;52544;48.116;11.660;2023-01-08T07:53:26;6.60;;;3.22;;
65799;SDS011;52544;48.116;11.660;2023-01-08T07:55:57;4.93;;;2.83;;
65799;SDS011;52544;48.116;11.660;2023-01-08T07:58:23;6.30;;;3.20;;
65799;SDS011;52544;48.116;11.660;2023-01-08T08:00:48;5.60;;;3.20;;
65799;SDS011;52544;48.116;11.660;2023-01-08T08:03:13;3.90;;;2.67;;
65799;SDS011;52544;48.116;11.660;2023-01-08T08:05:39;4.25;;;2.53;;
65799;SDS011;52544;48.116;11.660;2023-01-08T08:08:08;4.40;;;2.95;;
65799;SDS011;52544;48.116;11.660;2023-01-08T08:10:35;3.90;;;2.30;;
65799;SDS011;52544;48.116;11.660;2023-01-08T08:13:01;5.70;;;2.80;;
65799;SDS011;52544;48.116;11.660;2023-01-08T08:15:26;5.95;;;2.92;;
65799;SDS011;52544;48.116;11.660;2023-01-08T08:17:51;5.10;;;2.40;;
65799;SDS011;52544;48.116;11.660;2023-01-08T08:20:17;4.10;;;2.55;;
65799;SDS011;52544;48.116;11.660;2023-01-08T08:22:42;6.18;;;3.05;;
65799;SDS011;52544;48.116;11.660;2023-01-08T08:25:08;5.85;;;2.95;;
65799;SDS011;52544;48.116;11.660;2023-01-08T08:27:33;6.22;;;3.13;;
65799;SDS011;52544;48.116;11.660;2023-01-08T08:29:59;8.20;;;3.72;;
65799;SDS011;52544;48.116;11.660;2023-01-08T08:32:24;6.50;;;3.28;;
65799;SDS011;52544;48.116;11.660;2023-01-08T08:34:50;5.38;;;3.13;;
65799;SDS011;52544;48.116;11.660;2023-01-08T08:37:15;9.13;;;4.93;;
65799;SDS011;52544;48.116;11.660;2023-01-08T08:39:40;15.80;;;7.20;;
65799;SDS011;52544;48.116;11.660;2023-01-08T08:42:06;10.60;;;5.78;;
65799;SDS011;52544;48.116;11.660;2023-01-08T08:44:31;13.75;;;5.07;;
65799;SDS011;52544;48.116;11.660;2023-01-08T08:46:57;8.27;;;4.70;;
65799;SDS011;52544;48.116;11.660;2023-01-08T08:49:22;12.75;;;6.35;;
65799;SDS011;52544;48.116;11.660;2023-01-08T08:51:47;11.00;;;4.95;;
65799;SDS011;52544;48.116;11.660;2023-01-08T08:54:13;9.70;;;4.95;;
65799;SDS011;52544;48.116;11.660;2023-01-08T08:56:38;12.30;;;5.53;;
65799;SDS011;52544;48.116;11.660;2023-01-08T08:59:03;8.07;;;4.63;;
65799;SDS011;52544;48.116;11.660;2023-01-08T09:01:29;7.57;;;4.43;;
65799;SDS011;52544;48.116;11.660;2023-01-08T09:03:54;9.60;;;3.40;;
65799;SDS011;52544;48.116;11.660;2023-01-08T09:06:20;7.65;;;3.70;;
65799;SDS011;52544;48.116;11.660;2023-01-08T09:08:45;7.75;;;3.10;;
65799;SDS011;52544;48.116;11.660;2023-01-08T09:11:10;9.70;;;3.60;;
65799;SDS011;52544;48.116;11.660;2023-01-08T09:13:36;6.10;;;3.33;;
65799;SDS011;52544;48.116;11.660;2023-01-08T09:16:02;7.53;;;4.07;;
65799;SDS011;52544;48.116;11.660;2023-01-08T09:18:27;7.78;;;4.07;;
65799;SDS011;52544;48.116;11.660;2023-01-08T09:20:53;6.53;;;3.45;;
65799;SDS011;52544;48.116;11.660;2023-01-08T09:23:18;6.07;;;3.88;;
65799;SDS011;52544;48.116;11.660;2023-01-08T09:25:44;8.73;;;3.20;;
65799;SDS011;52544;48.116;11.660;2023-01-08T09:28:10;9.93;;;4.53;;
65799;SDS011;52544;48.116;11.660;2023-01-08T09:30:37;8.15;;;4.38;;
65799;SDS011;52544;48.116;11.660;2023-01-08T09:33:04;10.52;;;5.15;;
65799;SDS011;52544;48.116;11.660;2023-01-08T09:35:30;8.93;;;4.32;;
65799;SDS011;52544;48.116;11.660;2023-01-08T09:37:57;6.05;;;2.97;;
65799;SDS011;52544;48.116;11.660;2023-01-08T09:40:25;3.38;;;2.03;;
65799;SDS011;52544;48.116;11.660;2023-01-08T09:42:59;4.15;;;1.67;;
65799;SDS011;52544;48.116;11.660;2023-01-08T09:45:28;3.08;;;1.80;;
65799;SDS011;52544;48.116;11.660;2023-01-08T09:47:56;1.70;;;1.50;;
65799;SDS011;52544;48.116;11.660;2023-01-08T09:50:25;2.28;;;1.60;;
65799;SDS011;52544;48.116;11.660;2023-01-08T09:52:54;3.20;;;1.77;;
65799;SDS011;52544;48.116;11.660;2023-01-08T09:55:21;2.67;;;1.65;;
65799;SDS011;52544;48.116;11.660;2023-01-08T09:57:46;3.17;;;1.80;;
65799;SDS011;52544;48.116;11.660;2023-01-08T10:00:13;4.13;;;1.75;;
65799;SDS011;52544;48.116;11.660;2023-01-08T10:02:46;2.75;;;1.67;;
65799;SDS011;52544;48.116;11.660;2023-01-08T10:05:14;3.28;;;1.73;;
65799;SDS011;52544;48.116;11.660;2023-01-08T10:07:42;3.97;;;1.95;;
65799;SDS011;52544;48.116;11.660;2023-01-08T10:10:18;2.80;;;1.98;;
65799;SDS011;52544;48.116;11.660;2023-01-08T10:12:49;3.40;;;1.83;;
65799;SDS011;52544;48.116;11.660;2023-01-08T10:15:16;3.55;;;1.75;;
65799;SDS011;52544;48.116;11.660;2023-01-08T10:20:30;3.75;;;2.03;;
65799;SDS011;52544;48.116;11.660;2023-01-08T10:22:56;2.85;;;1.70;;
65799;SDS011;52544;48.116;11.660;2023-01-08T10:25:33;5.35;;;2.15;;
65799;SDS011;52544;48.116;11.660;2023-01-08T10:28:17;2.80;;;1.83;;
65799;SDS011;52544;48.116;11.660;2023-01-08T10:30:45;2.45;;;1.50;;
65799;SDS011;52544;48.116;11.660;2023-01-08T10:33:17;2.97;;;1.98;;
65799;SDS011;52544;48.116;11.660;2023-01-08T10:35:54;3.72;;;1.95;;
65799;SDS011;52544;48.116;11.660;2023-01-08T10:38:29;3.30;;;1.70;;
65799;SDS011;52544;48.116;11.660;2023-01-08T10:40:56;3.20;;;1.98;;
65799;SDS011;52544;48.116;11.660;2023-01-08T10:43:26;3.20;;;1.88;;
65799;SDS011;52544;48.116;11.660;2023-01-08T10:46:02;3.08;;;1.92;;
65799;SDS011;52544;48.116;11.660;2023-01-08T10:48:44;3.50;;;1.80;;
65799;SDS011;52544;48.116;11.660;2023-01-08T10:51:19;3.55;;;2.00;;
65799;SDS011;52544;48.116;11.660;2023-01-08T10:53:48;3.53;;;1.92;;
65799;SDS011;52544;48.116;11.660;2023-01-08T10:56:30;4.25;;;1.65;;
65799;SDS011;52544;48.116;11.660;2023-01-08T10:59:04;3.78;;;1.58;;
65799;SDS011;52544;48.116;11.660;2023-01-08T11:01:29;2.95;;;1.80;;
65799;SDS011;52544;48.116;11.660;2023-01-08T11:03:57;4.15;;;1.80;;
65799;SDS011;52544;48.116;11.660;2023-01-08T11:06:31;1.80;;;1.23;;
65799;SDS011;52544;48.116;11.660;2023-01-08T11:09:00;2.97;;;1.92;;
65799;SDS011;52544;48.116;11.660;2023-01-08T11:11:35;4.40;;;1.80;;
65799;SDS011;52544;48.116;11.660;2023-01-08T11:14:02;2.88;;;1.70;;
65799;SDS011;52544;48.116;11.660;2023-01-08T11:16:34;2.40;;;1.63;;
65799;SDS011;52544;48.116;11.660;2023-01-08T11:19:02;2.83;;;1.70;;
65799;SDS011;52544;48.116;11.660;2023-01-08T11:21:29;3.70;;;1.75;;
65799;SDS011;52544;48.116;11.660;2023-01-08T11:24:10;5.03;;;2.55;;
65799;SDS011;52544;48.116;11.660;2023-01-08T11:26:37;3.05;;;1.73;;
65799;SDS011;52544;48.116;11.660;2023-01-08T11:30:09;3.65;;;1.92;;
65799;SDS011;52544;48.116;11.660;2023-01-08T11:34:53;11.07;;;7.20;;
65799;SDS011;52544;48.116;11.660;2023-01-08T11:39:50;3.40;;;2.00;;
65799;SDS011;52544;48.116;11.660;2023-01-08T11:45:24;3.42;;;1.90;;
65799;SDS011;52544;48.116;11.660;2023-01-08T11:51:00;4.22;;;2.13;;
65799;SDS011;52544;48.116;11.660;2023-01-08T11:53:32;4.30;;;2.95;;
65799;SDS011;52544;48.116;11.660;2023-01-08T12:01:35;4.03;;;2.05;;
65799;SDS011;52544;48.116;11.660;2023-01-08T12:04:45;4.57;;;2.13;;
65799;SDS011;52544;48.116;11.660;2023-01-08T12:12:59;2.72;;;1.60;;
65799;SDS011;52544;48.116;11.660;2023-01-08T12:33:36;2.97;;;1.70;;
65799;SDS011;52544;48.116;11.660;2023-01-08T12:36:08;4.47;;;2.45;;
65799;SDS011;52544;48.116;11.660;2023-01-08T12:38:38;5.25;;;2.80;;
65799;SDS011;52544;48.116;11.660;2023-01-08T12:41:11;26.00;;;11.20;;
65799;SDS011;52544;48.116;11.660;2023-01-08T12:46:14;11.75;;;6.93;;
65799;SDS011;52544;48.116;11.660;2023-01-08T12:48:41;5.97;;;3.13;;
65799;SDS011;52544;48.116;11.660;2023-01-08T12:51:16;12.80;;;6.70;;
65799;SDS011;52544;48.116;11.660;2023-01-08T12:59:33;5.50;;;3.33;;
65799;SDS011;52544;48.116;11.660;2023-01-08T13:05:13;16.33;;;7.97;;
65799;SDS011;52544;48.116;11.660;2023-01-08T13:07:48;3.53;;;2.00;;
65799;SDS011;52544;48.116;11.660;2023-01-08T13:10:39;2.20;;;1.45;;
65799;SDS011;52544;48.116;11.660;2023-01-08T13:13:04;2.65;;;1.60;;
65799;SDS011;52544;48.116;11.660;2023-01-08T13:15:32;2.45;;;1.77;;
65799;SDS011;52544;48.116;11.660;2023-01-08T13:18:15;3.35;;;1.65;;
65799;SDS011;52544;48.116;11.660;2023-01-08T13:20:53;2.90;;;1.90;;
65799;SDS011;52544;48.116;11.660;2023-01-08T13:23:22;4.55;;;1.98;;
65799;SDS011;52544;48.116;11.660;2023-01-08T13:25:50;5.70;;;2.10;;
65799;SDS011;52544;48.116;11.660;2023-01-08T13:28:27;2.80;;;1.92;;
65799;SDS011;52544;48.116;11.660;2023-01-08T13:33:48;3.08;;;1.98;;
65799;SDS011;52544;48.116;11.660;2023-01-08T13:39:04;4.45;;;2.40;;
65799;SDS011;52544;48.116;11.660;2023-01-08T13:41:40;4.18;;;2.10;;
65799;SDS011;52544;48.116;11.660;2023-01-08T13:44:16;3.22;;;1.85;;
65799;SDS011;52544;48.116;11.660;2023-01-08T13:46:53;3.25;;;1.70;;
65799;SDS011;52544;48.116;11.660;2023-01-08T13:49:31;7.55;;;4.13;;
65799;SDS011;52544;48.116;11.660;2023-01-08T13:52:00;9.40;;;5.15;;
65799;SDS011;52544;48.116;11.660;2023-01-08T13:54:30;8.30;;;4.82;;
65799;SDS011;52544;48.116;11.660;2023-01-08T13:57:01;5.50;;;2.80;;
65799;SDS011;52544;48.116;11.660;2023-01-08T13:59:33;8.07;;;3.70;;
65799;SDS011;52544;48.116;11.660;2023-01-08T14:02:02;6.78;;;3.10;;
65799;SDS011;52544;48.116;11.660;2023-01-08T14:04:28;7.95;;;4.13;;
65799;SDS011;52544;48.116;11.660;2023-01-08T14:07:04;11.20;;;7.10;;
65799;SDS011;52544;48.116;11.660;2023-01-08T14:09:36;10.65;;;5.60;;
65799;SDS011;52544;48.116;11.660;2023-01-08T14:12:02;9.23;;;4.70;;
65799;SDS011;52544;48.116;11.660;2023-01-08T14:14:27;9.40;;;5.68;;
65799;SDS011;52544;48.116;11.660;2023-01-08T14:16:53;6.30;;;3.72;;
65799;SDS011;52544;48.116;11.660;2023-01-08T14:19:20;6.55;;;3.15;;
65799;SDS011;52544;48.116;11.660;2023-01-08T14:21:48;4.53;;;2.80;;
65799;SDS011;52544;48.116;11.660;2023-01-08T14:24:15;7.05;;;2.80;;
65799;SDS011;52544;48.116;11.660;2023-01-08T14:26:42;7.07;;;3.97;;
65799;SDS011;52544;48.116;11.660;2023-01-08T14:29:14;18.33;;;9.10;;
65799;SDS011;52544;48.116;11.660;2023-01-08T14:31:46;10.82;;;5.90;;
65799;SDS011;52544;48.116;11.660;2023-01-08T14:34:14;8.43;;;3.33;;
65799;SDS011;52544;48.116;11.660;2023-01-08T14:36:40;6.78;;;3.65;;
65799;SDS011;52544;48.116;11.660;2023-01-08T14:39:10;19.38;;;9.85;;
65799;SDS011;52544;48.116;11.660;2023-01-08T14:41:37;24.20;;;11.27;;
65799;SDS011;52544;48.116;11.660;2023-01-08T14:44:24;19.30;;;9.80;;
65799;SDS011;52544;48.116;11.660;2023-01-08T14:46:51;23.60;;;8.20;;
65799;SDS011;52544;48.116;11.660;2023-01-08T14:49:19;13.00;;;6.25;;
65799;SDS011;52544;48.116;11.660;2023-01-08T14:51:49;5.85;;;3.45;;
65799;SDS011;52544;48.116;11.660;2023-01-08T14:54:22;6.60;;;3.47;;
65799;SDS011;52544;48.116;11.660;2023-01-08T14:56:53;7.53;;;3.72;;
65799;SDS011;52544;48.116;11.660;2023-01-08T14:59:23;7.05;;;3.72;;
65799;SDS011;52544;48.116;11.660;2023-01-08T15:01:54;9.95;;;4.50;;
65799;SDS011;52544;48.116;11.660;2023-01-08T15:04:22;9.40;;;4.85;;
65799;SDS011;52544;48.116;11.660;2023-01-08T15:06:49;9.50;;;5.03;;
65799;SDS011;52544;48.116;11.660;2023-01-08T15:09:20;8.18;;;3.78;;
65799;SDS011;52544;48.116;11.660;2023-01-08T15:14:24;6.47;;;3.90;;
65799;SDS011;52544;48.116;11.660;2023-01-08T15:16:52;10.20;;;3.72;;
65799;SDS011;52544;48.116;11.660;2023-01-08T15:19:26;10.13;;;3.72;;
65799;SDS011;52544;48.116;11.660;2023-01-08T15:21:54;9.20;;;4.45;;
65799;SDS011;52544;48.116;11.660;2023-01-08T15:24:31;11.68;;;4.68;;
65799;SDS011;52544;48.116;11.660;2023-01-08T15:26:59;11.68;;;4.18;;
65799;SDS011;52544;48.116;11.660;2023-01-08T15:29:35;7.60;;;4.32;;
65799;SDS011;52544;48.116;11.660;2023-01-08T15:32:09;9.27;;;4.70;;
65799;SDS011;52544;48.116;11.660;2023-01-08T15:34:38;10.63;;;5.57;;
65799;SDS011;52544;48.116;11.660;2023-01-08T15:37:04;18.08;;;6.60;;
65799;SDS011;52544;48.116;11.660;2023-01-08T15:39:29;13.10;;;6.43;;
65799;SDS011;52544;48.116;11.660;2023-01-08T15:41:55;11.63;;;6.00;;
65799;SDS011;52544;48.116;11.660;2023-01-08T15:44:39;13.07;;;5.70;;
65799;SDS011;52544;48.116;11.660;2023-01-08T15:47:04;12.10;;;5.80;;
65799;SDS011;52544;48.116;11.660;2023-01-08T15:49:30;10.45;;;5.53;;
65799;SDS011;52544;48.116;11.660;2023-01-08T15:51:55;13.48;;;6.18;;
65799;SDS011;52544;48.116;11.660;2023-01-08T15:54:22;15.57;;;6.00;;
65799;SDS011;52544;48.116;11.660;2023-01-08T15:56:49;12.93;;;5.80;;
65799;SDS011;52544;48.116;11.660;2023-01-08T15:59:15;12.50;;;6.20;;